Terminal Aerodrome Forecast
Issued by NWS

Home | Current Version | Previous Version | Text Only | Print | Product List | Glossary On
Versions: 1 2 3 4 5 6 7 8 9 10 11 12 13
000
FTUS44 KJAN 251754
TAFGTR
TAF
KGTR 251754Z 2518/2618 16012KT P6SM -SHRA VCTS BKN010 BKN020CB
     FM252000 14015KT P6SM VCTS BKN035CB BKN050
     FM260200 15013KT P6SM BKN015
     FM260800 15011KT P6SM VCSH BKN007 OVC012
     FM261200 17011KT 6SM -SHRA VCTS BKN008CB OVC015=

USA.gov is the U.S. government's official web portal to all federal, state and local government web resources and services.